Time;durP1;ratioP1;P1;durP2;ratioP2;P2;SDS_P1;SDS_P2;PMS_P1;PMS_P2;Temp;Humidity;BMP_temperature;BMP_pressure;BME280_temperature;BME280_humidity;BME280_pressure;Samples;Min_cycle;Max_cycle;Signal;HPM_P1;HPM_P2
2023/05/31 00:01:33;;;;;;;5.80;3.95;;;;;;;;;;6224851;22;20028;-85
2023/05/31 00:03:59;;;;;;;5.90;3.40;;;;;;;;;;6225028;22;20016;-85
2023/05/31 00:06:25;;;;;;;8.32;3.65;;;;;;;;;;6275333;22;20020;-86
2023/05/31 00:08:51;;;;;;;5.28;3.50;;;;;;;;;;6275484;22;20022;-85
2023/05/31 00:11:17;;;;;;;5.38;3.88;;;;;;;;;;6250214;22;20456;-86
2023/05/31 00:13:43;;;;;;;8.15;4.35;;;;;;;;;;6250018;22;20098;-87
2023/05/31 00:16:10;;;;;;;4.88;3.97;;;;;;;;;;6251147;22;20027;-85
2023/05/31 00:18:36;;;;;;;5.75;3.70;;;;;;;;;;6275878;22;20050;-85
2023/05/31 00:21:03;;;;;;;5.68;3.53;;;;;;;;;;6275935;22;20344;-86
2023/05/31 00:23:32;;;;;;;8.63;3.60;;;;;;;;;;6250479;22;20011;-85
2023/05/31 00:25:58;;;;;;;6.30;3.88;;;;;;;;;;6249707;22;20015;-86
2023/05/31 00:28:24;;;;;;;7.32;4.28;;;;;;;;;;6250213;22;20717;-86
2023/05/31 00:30:50;;;;;;;8.63;4.00;;;;;;;;;;6275150;22;20011;-85
2023/05/31 00:33:16;;;;;;;8.45;4.28;;;;;;;;;;6275869;22;20038;-85
2023/05/31 00:35:42;;;;;;;12.57;4.28;;;;;;;;;;6249630;22;20070;-84
2023/05/31 00:38:08;;;;;;;6.10;3.40;;;;;;;;;;6275200;22;20457;-83
2023/05/31 00:40:35;;;;;;;5.38;3.50;;;;;;;;;;6249689;22;20100;-83
2023/05/31 00:43:01;;;;;;;5.50;3.20;;;;;;;;;;6250290;22;20356;-83
2023/05/31 00:45:28;;;;;;;5.68;3.80;;;;;;;;;;6249575;22;20027;-83
2023/05/31 00:47:54;;;;;;;7.40;3.42;;;;;;;;;;6224625;22;20011;-83
2023/05/31 00:50:21;;;;;;;5.68;3.85;;;;;;;;;;6275053;22;20015;-83
2023/05/31 00:52:49;;;;;;;3.63;2.75;;;9.80;99.90;;;;;;6249129;22;20417;-83
2023/05/31 00:55:16;;;;;;;4.30;2.35;;;9.50;99.90;;;;;;6274994;22;20024;-84
2023/05/31 00:57:42;;;;;;;3.17;2.00;;;;;;;;;;6199339;22;20514;-83
2023/05/31 01:00:09;;;;;;;3.28;2.35;;;;;;;;;;6249420;22;20022;-83
2023/05/31 01:02:37;;;;;;;6.00;3.10;;;;;;;;;;6275049;22;20015;-83
2023/05/31 01:05:05;;;;;;;4.38;2.97;;;9.30;99.90;;;;;;6274842;22;20016;-83
2023/05/31 01:07:31;;;;;;;4.65;3.38;;;;;;;;;;6249348;22;20094;-83
2023/05/31 01:09:57;;;;;;;8.63;4.43;;;;;;;;;;6249392;22;20023;-84
2023/05/31 01:12:32;;;;;;;9.00;4.00;;;;;;;;;;6249379;22;20015;-85
2023/05/31 01:15:17;;;;;;;5.30;3.67;;;9.20;99.90;;;;;;6249173;22;20487;-85
2023/05/31 01:17:48;;;;;;;8.32;4.10;;;;;;;;;;6249335;22;20022;-85
2023/05/31 01:20:17;;;;;;;6.13;4.53;;;;;;;;;;6274887;22;20020;-84
2023/05/31 01:22:50;;;;;;;9.23;4.68;;;;;;;;;;6249379;22;20054;-85
2023/05/31 01:25:32;;;;;;;11.33;4.07;;;;;;;;;;6249422;22;20023;-84
2023/05/31 01:28:00;;;;;;;11.13;4.30;;;9.00;99.90;;;;;;6249381;22;20349;-86
2023/05/31 01:30:31;;;;;;;9.55;4.63;;;9.10;99.90;;;;;;6249210;22;20012;-85
2023/05/31 01:32:59;;;;;;;6.15;4.05;;;9.20;99.90;;;;;;6270151;22;20418;-85
2023/05/31 01:35:25;;;;;;;5.05;3.75;;;;;;;;;;6249213;22;20054;-85
2023/05/31 01:37:52;;;;;;;4.95;3.67;;;;;;;;;;6250914;22;20030;-86
2023/05/31 01:40:18;;;;;;;6.03;2.95;;;;;;;;;;6277016;22;20020;-85
2023/05/31 01:42:45;;;;;;;5.95;3.03;;;;;;;;;;6226342;22;20011;-85
2023/05/31 01:45:12;;;;;;;6.00;2.35;;;;;;;;;;6276931;22;20024;-84
2023/05/31 01:47:43;;;;;;;4.00;2.40;;;;;;;;;;6276971;22;20030;-82
2023/05/31 01:50:13;;;;;;;3.58;2.97;;;;;;;;;;6276744;22;20019;-83
2023/05/31 01:52:40;;;;;;;6.43;2.95;;;;;;;;;;6250933;22;20016;-84
2023/05/31 01:55:07;;;;;;;5.25;3.13;;;;;;;;;;6251001;22;20023;-83
2023/05/31 01:57:34;;;;;;;5.93;3.38;;;;;;;;;;6276692;22;20012;-83
2023/05/31 02:00:01;;;;;;;9.30;4.03;;;;;;;;;;6276543;22;20541;-83
2023/05/31 02:02:28;;;;;;;4.60;3.45;;;;;;;;;;6276705;22;20016;-83
2023/05/31 02:05:11;;;;;;;8.38;4.05;;;;;;;;;;6251881;22;20467;-83
2023/05/31 02:07:41;;;;;;;6.30;3.70;;;;;;;;;;6251112;22;20043;-83
2023/05/31 02:10:07;;;;;;;7.95;4.03;;;;;;;;;;6276478;22;20043;-83
2023/05/31 02:12:33;;;;;;;9.50;4.32;;;;;;;;;;6276585;22;20055;-83
2023/05/31 02:14:59;;;;;;;8.07;4.07;;;;;;;;;;6251235;22;20441;-83
2023/05/31 02:17:26;;;;;;;6.95;4.15;;;;;;;;;;6276572;22;20023;-82
2023/05/31 02:19:55;;;;;;;11.32;4.03;;;;;;;;;;6276308;22;20019;-83
2023/05/31 02:22:21;;;;;;;5.93;4.07;;;;;;;;;;6276405;22;20073;-83
2023/05/31 02:24:48;;;;;;;7.68;4.95;;;;;;;;;;6250817;22;20352;-83
2023/05/31 02:27:14;;;;;;;11.15;4.25;;;;;;;;;;6250728;22;20070;-83
2023/05/31 02:29:40;;;;;;;7.43;3.42;;;;;;;;;;6276548;22;20012;-83
2023/05/31 02:32:06;;;;;;;10.10;3.50;;;;;;;;;;6276289;22;20353;-83
2023/05/31 02:34:33;;;;;;;4.65;2.80;;;;;;;;;;6250699;22;20065;-83
2023/05/31 02:37:00;;;;;;;6.75;2.65;;;;;;;;;;6276354;22;20384;-83
2023/05/31 02:39:26;;;;;;;2.90;2.50;;;;;;;;;;6276197;22;20069;-82
2023/05/31 02:41:52;;;;;;;2.63;2.40;;;;;;;;;;6250692;22;20015;-83
2023/05/31 02:44:18;;;;;;;3.55;2.35;;;;;;;;;;6250864;22;20012;-83
2023/05/31 02:46:44;;;;;;;3.65;2.42;;;;;;;;;;6225720;22;20016;-83
2023/05/31 02:49:10;;;;;;;4.60;2.90;;;;;;;;;;6276198;22;20019;-83
2023/05/31 02:51:36;;;;;;;6.40;2.70;;;;;;;;;;6225358;22;20020;-83
2023/05/31 02:54:02;;;;;;;5.45;2.65;;;;;;;;;;6250688;22;20058;-83
2023/05/31 02:56:28;;;;;;;4.25;3.05;;;;;;;;;;6250662;22;20024;-83
2023/05/31 02:58:55;;;;;;;4.03;2.83;;;;;;;;;;6225712;22;20023;-83
2023/05/31 03:01:21;;;;;;;5.55;2.63;;;;;;;;;;6250508;22;20357;-83
2023/05/31 03:03:48;;;;;;;3.75;2.45;;;;;;;;;;6250471;22;20027;-84
2023/05/31 03:06:16;;;;;;;3.05;2.33;;;;;;;;;;6250545;22;20114;-83
2023/05/31 03:08:42;;;;;;;3.53;2.78;;;;;;;;;;6250382;22;20018;-84
2023/05/31 03:11:08;;;;;;;3.58;2.67;;;;;;;;;;6250476;22;20461;-83
2023/05/31 03:13:35;;;;;;;4.28;2.97;;;;;;;;;;6275917;22;20012;-83
2023/05/31 03:16:01;;;;;;;4.10;2.65;;;;;;;;;;6250594;22;20023;-85
2023/05/31 03:18:27;;;;;;;3.40;2.42;;;;;;;;;;6275924;22;20066;-84
2023/05/31 03:20:53;;;;;;;4.55;2.40;;;;;;;;;;6250215;22;20070;-85
2023/05/31 03:23:19;;;;;;;4.63;2.40;;;;;;;;;;6225172;22;20020;-86
2023/05/31 03:25:46;;;;;;;4.00;2.88;;;;;;;;;;6225325;22;20020;-85
2023/05/31 03:28:12;;;;;;;4.90;2.10;;;;;;;;;;6250281;22;20012;-83
2023/05/31 03:30:38;;;;;;;4.30;2.17;;;;;;;;;;6250200;22;20094;-84
2023/05/31 03:33:04;;;;;;;1.98;1.77;;;;;;;;;;6224970;22;20015;-83
2023/05/31 03:35:30;;;;;;;2.60;1.92;;;;;;;;;;6250342;22;20055;-85
2023/05/31 03:37:56;;;;;;;4.13;1.85;;;;;;;;;;6275813;22;20012;-86
2023/05/31 03:40:22;;;;;;;2.85;2.25;;;;;;;;;;6250702;22;20016;-83
2023/05/31 03:42:48;;;;;;;3.35;1.92;;;;;;;;;;6250317;22;20011;-84
2023/05/31 03:45:15;;;;;;;5.47;2.55;;;;;;;;;;6275617;22;20085;-84
2023/05/31 03:47:41;;;;;;;7.63;2.55;;;;;;;;;;6249971;22;20023;-84
2023/05/31 03:50:07;;;;;;;2.28;1.95;;;;;;;;;;6275666;22;20047;-85
2023/05/31 03:52:33;;;;;;;3.80;1.67;;;;;;;;;;6275526;22;20016;-83
2023/05/31 03:54:59;;;;;;;5.28;2.00;;;;;;;;;;6250028;22;20024;-84
2023/05/31 03:57:25;;;;;;;5.47;2.65;;;;;;;;;;6250336;22;20016;-85
2023/05/31 03:59:52;;;;;;;4.93;3.00;;;;;;;;;;6249628;22;20015;-84
2023/05/31 04:02:18;;;;;;;5.43;3.45;;;;;;;;;;6249871;22;20012;-83
2023/05/31 04:04:44;;;;;;;6.40;3.40;;;;;;;;;;6275663;22;20024;-82
2023/05/31 04:07:10;;;;;;;5.95;3.05;;;;;;;;;;6225303;22;20012;-83
2023/05/31 04:09:36;;;;;;;6.65;3.33;;;;;;;;;;6275359;22;20514;-82
2023/05/31 04:12:02;;;;;;;5.13;3.33;;;;;;;;;;6275238;22;20019;-83
2023/05/31 04:14:28;;;;;;;4.38;2.97;;;;;;;;;;6250510;22;20054;-82
2023/05/31 04:16:54;;;;;;;5.70;3.75;;;;;;;;;;6275508;22;20020;-82
2023/05/31 04:19:21;;;;;;;10.40;4.68;;;;;;;;;;6275188;22;20012;-82
2023/05/31 04:21:47;;;;;;;8.55;4.55;;;;;;;;;;6224723;22;20019;-83
2023/05/31 04:24:13;;;;;;;9.73;4.88;;;;;;;;;;6224792;22;20016;-83
2023/05/31 04:26:39;;;;;;;9.52;3.75;;;;;;;;;;6249975;22;20015;-83
2023/05/31 04:29:05;;;;;;;7.07;4.63;;;;;;;;;;6249657;22;20077;-83
2023/05/31 04:31:35;;;;;;;8.30;5.28;;;8.60;99.90;;;;;;6249752;22;20020;-83
2023/05/31 04:34:03;;;;;;;10.73;4.45;;;;;;;;;;6225155;22;20056;-83
2023/05/31 04:36:32;;;;;;;13.75;5.40;;;;;;;;;;6250293;22;20026;-83
2023/05/31 04:38:59;;;;;;;12.07;6.57;;;;;;;;;;6249698;22;20348;-83
2023/05/31 04:41:25;;;;;;;11.73;6.47;;;;;;;;;;6224448;22;20071;-83
2023/05/31 04:43:53;;;;;;;9.32;5.05;;;;;;;;;;6249598;22;20445;-83
2023/05/31 04:46:19;;;;;;;9.88;6.03;;;;;;;;;;6275113;22;20083;-83
2023/05/31 04:48:50;;;;;;;12.05;5.72;;;;;;;;;;6249461;22;20012;-83
2023/05/31 04:51:19;;;;;;;10.70;5.43;;;;;;;;;;6274621;22;20449;-83
2023/05/31 04:53:47;;;;;;;12.65;5.18;;;;;;;;;;6249498;22;20047;-83
2023/05/31 04:56:13;;;;;;;12.65;5.68;;;;;;;;;;6274857;22;20073;-84
2023/05/31 04:58:40;;;;;;;11.98;6.30;;;;;;;;;;6275198;22;20076;-83
2023/05/31 05:01:06;;;;;;;11.57;5.82;;;;;;;;;;6249343;22;20539;-83
2023/05/31 05:03:33;;;;;;;10.05;5.80;;;;;;;;;;6275121;22;20333;-86
2023/05/31 05:06:01;;;;;;;11.07;5.82;;;9.60;99.90;;;;;;6275177;22;20074;-86
2023/05/31 05:08:27;;;;;;;13.95;6.65;;;;;;;;;;6275163;22;20012;-86
2023/05/31 05:10:53;;;;;;;18.42;7.43;;;;;;;;;;6228580;22;20038;-89
2023/05/31 05:13:19;;;;;;;16.00;7.07;;;;;;;;;;6251898;22;20069;-86
2023/05/31 05:15:45;;;;;;;13.25;7.05;;;;;;;;;;6256787;22;20393;-89
2023/05/31 05:18:11;;;;;;;18.58;7.03;;;;;;;;;;6228588;22;20022;-86
2023/05/31 05:20:38;;;;;;;19.20;7.85;;;;;;;;;;6232731;22;20016;-90
2023/05/31 05:23:06;;;;;;;17.95;7.15;;;;;;;;;;6251568;22;20325;-89
2023/05/31 05:25:33;;;;;;;16.13;7.85;;;;;;;;;;6276912;22;20059;-90
2023/05/31 05:27:59;;;;;;;28.52;7.90;;;;;;;;;;6276417;22;20050;-89
2023/05/31 05:30:25;;;;;;;15.07;7.70;;;;;;;;;;6250210;22;20015;-88
2023/05/31 05:32:51;;;;;;;16.77;6.97;;;;;;;;;;6250207;22;20011;-90
2023/05/31 05:35:17;;;;;;;20.65;8.43;;;;;;;;;;6225253;22;20024;-89
2023/05/31 05:37:43;;;;;;;13.07;6.78;;;;;;;;;;6224895;22;20016;-88
2023/05/31 05:40:10;;;;;;;16.02;6.90;;;;;;;;;;6250075;22;20016;-87
2023/05/31 05:42:36;;;;;;;21.52;8.15;;;;;;;;;;6225219;22;20141;-90
2023/05/31 05:45:04;;;;;;;20.00;7.28;;;11.20;99.90;;;;;;6275149;22;20027;-89
2023/05/31 05:47:30;;;;;;;15.93;6.50;;;;;;;;;;6249795;22;20031;-90
2023/05/31 05:49:56;;;;;;;15.40;6.32;;;;;;;;;;6224649;22;20027;-87
2023/05/31 05:52:22;;;;;;;18.77;6.72;;;;;;;;;;6249063;22;20093;-82
2023/05/31 05:54:48;;;;;;;16.42;7.20;;;;;;;;;;6249385;22;20066;-82
2023/05/31 05:57:14;;;;;;;10.18;6.30;;;;;;;;;;6249325;22;20019;-82
2023/05/31 05:59:42;;;;;;;10.18;5.68;;;12.10;99.90;;;;;;6249293;22;20102;-82
2023/05/31 06:02:08;;;;;;;10.70;5.65;;;;;;;;;;6274824;22;20020;-82
2023/05/31 06:04:34;;;;;;;14.30;5.57;;;;;;;;;;6249654;22;20097;-82
2023/05/31 06:07:00;;;;;;;9.73;6.05;;;;;;;;;;6275070;22;20096;-82
2023/05/31 06:09:26;;;;;;;19.00;5.65;;;;;;;;;;6224299;22;20387;-82
2023/05/31 06:11:53;;;;;;;11.32;5.25;;;;;;;;;;6249047;22;20070;-81
2023/05/31 06:14:18;;;;;;;9.52;5.00;;;12.70;99.90;;;;;;6274769;22;20440;-81
2023/05/31 06:16:44;;;;;;;14.18;5.38;;;;;;;;;;6249168;22;20058;-81
2023/05/31 06:19:10;;;;;;;7.63;4.20;;;;;;;;;;6249104;22;20020;-81
2023/05/31 06:21:36;;;;;;;6.18;4.25;;;;;;;;;;6223959;22;20022;-80
2023/05/31 06:24:02;;;;;;;11.55;4.95;;;;;;;;;;6276389;22;20015;-81
2023/05/31 06:26:29;;;;;;;10.45;4.47;;;;;;;;;;6276548;22;20065;-81
2023/05/31 06:29:00;;;;;;;7.57;4.28;;;13.30;99.90;;;;;;6250696;22;20065;-81
2023/05/31 06:31:26;;;;;;;7.75;4.13;;;;;;;;;;6276408;22;20034;-83
2023/05/31 06:33:52;;;;;;;7.65;4.07;;;13.40;99.90;;;;;;6250795;22;20011;-83
2023/05/31 06:36:18;;;;;;;7.72;3.65;;;;;;;;;;6225754;22;20099;-82
2023/05/31 06:38:46;;;;;;;9.50;3.33;;;;;;;;;;6250854;22;20016;-82
2023/05/31 06:41:12;;;;;;;10.10;4.07;;;;;;;;;;6251184;22;20051;-83
2023/05/31 06:43:38;;;;;;;5.20;3.15;;;13.80;99.90;;;;;;6276402;22;20330;-82
2023/05/31 06:46:07;;;;;;;8.38;3.13;;;;;;;;;;6250732;22;20016;-83
2023/05/31 06:48:33;;;;;;;7.38;3.90;;;;;;;;;;6276139;22;20015;-82
2023/05/31 06:51:00;;;;;;;3.83;2.85;;;;;;;;;;6276190;22;20015;-82
2023/05/31 06:53:26;;;;;;;5.15;2.60;;;;;;;;;;6276036;22;20015;-85
2023/05/31 06:55:57;;;;;;;6.97;2.60;;;14.20;99.90;;;;;;6277612;22;20503;-84
2023/05/31 06:58:24;;;;;;;4.20;2.30;;;;;;;;;;6225414;22;20015;-85
2023/05/31 07:00:50;;;;;;;4.00;2.60;;;;;;;;;;6276050;22;20043;-83
2023/05/31 07:03:17;;;;;;;4.60;2.33;;;;;;;;;;6276217;22;20449;-84
2023/05/31 07:05:43;;;;;;;6.72;2.45;;;;;;;;;;6277774;22;20023;-84
2023/05/31 07:08:10;;;;;;;4.95;2.35;;;;;;;;;;6277930;22;20337;-85
2023/05/31 07:10:36;;;;;;;2.92;2.25;;;;;;;;;;6250808;22;20023;-84
2023/05/31 07:13:02;;;;;;;7.30;1.88;;;;;;;;;;6250848;22;20047;-83
2023/05/31 07:15:28;;;;;;;4.95;2.05;;;14.80;99.90;;;;;;6250626;22;20023;-84
2023/05/31 07:17:54;;;;;;;2.97;2.15;;;;;;;;;;6275784;22;20012;-83
2023/05/31 07:20:20;;;;;;;8.07;2.50;;;;;;;;;;6225098;22;20068;-84
2023/05/31 07:22:46;;;;;;;4.63;2.05;;;;;;;;;;6225153;22;20578;-82
2023/05/31 07:25:12;;;;;;;3.10;1.85;;;15.00;99.90;;;;;;6225318;22;20022;-83
2023/05/31 07:27:38;;;;;;;6.95;2.28;;;;;;;;;;6225107;22;20008;-82
2023/05/31 07:30:04;;;;;;;9.15;2.10;;;15.10;99.90;;;;;;6249899;22;20412;-83
2023/05/31 07:32:30;;;;;;;9.85;2.58;;;;;;;;;;6275755;22;20684;-83
2023/05/31 07:34:56;;;;;;;4.22;2.60;;;;;;;;;;6275107;22;20022;-83
2023/05/31 07:37:22;;;;;;;6.20;2.28;;;;;;;;;;6251467;22;20099;-83
2023/05/31 07:39:49;;;;;;;10.20;2.58;;;;;;;;;;6249947;22;20016;-83
2023/05/31 07:42:15;;;;;;;4.68;2.88;;;;;;;;;;6250320;22;20020;-82
2023/05/31 07:44:41;;;;;;;7.45;3.00;;;;;;;;;;6249940;22;20103;-84
2023/05/31 07:47:07;;;;;;;7.93;2.53;;;;;;;;;;6249958;22;20043;-84
2023/05/31 07:49:33;;;;;;;7.57;3.13;;;;;;;;;;6250548;22;20089;-81
2023/05/31 07:51:59;;;;;;;4.80;3.13;;;;;;;;;;6277444;22;20396;-85
2023/05/31 07:54:25;;;;;;;5.88;2.20;;;;;;;;;;6278455;22;20442;-90
2023/05/31 07:56:52;;;;;;;9.55;2.38;;;;;;;;;;6228273;22;20064;-90
2023/05/31 07:59:18;;;;;;;4.75;2.90;;;;;;;;;;6252806;22;20012;-83
2023/05/31 08:01:46;;;;;;;10.43;2.75;;;;;;;;;;6278828;22;20023;-90
2023/05/31 08:04:12;;;;;;;7.55;2.60;;;;;;;;;;6251240;22;20016;-87
2023/05/31 08:06:38;;;;;;;7.10;2.88;;;;;;;;;;6276731;22;20529;-89
2023/05/31 08:09:06;;;;;;;10.63;3.03;;;;;;;;;;6250248;22;20091;-88
2023/05/31 08:11:35;;;;;;;5.28;2.50;;;;;;;;;;6275896;22;20453;-86
2023/05/31 08:14:01;;;;;;;9.98;3.08;;;;;;;;;;6250422;22;20012;-88
2023/05/31 08:16:27;;;;;;;4.78;2.45;;;16.30;99.90;;;;;;6250026;22;20069;-90
2023/05/31 08:18:53;;;;;;;7.55;2.20;;;;;;;;;;6225038;22;20046;-87
2023/05/31 08:21:19;;;;;;;7.95;3.40;;;;;;;;;;6250670;22;20023;-90
2023/05/31 08:23:45;;;;;;;9.00;2.40;;;;;;;;;;6226192;22;20043;-90
2023/05/31 08:26:11;;;;;;;8.02;3.08;;;;;;;;;;6225780;22;20025;-89
2023/05/31 08:28:37;;;;;;;11.40;2.03;;;16.30;99.90;;;;;;6225982;22;20019;-89
2023/05/31 08:31:03;;;;;;;9.02;2.78;;;;;;;;;;6249644;22;20015;-89
2023/05/31 08:33:31;;;;;;;5.78;2.40;;;;;;;;;;6250634;22;20322;-86
2023/05/31 08:35:59;;;;;;;7.80;3.00;;;;;;;;;;6250949;22;20019;-91
2023/05/31 08:38:28;;;;;;;6.97;3.22;;;;;;;;;;6277195;22;20065;-88
2023/05/31 08:41:01;;;;;;;8.07;3.08;;;16.50;99.90;;;;;;6251054;22;20444;-91
2023/05/31 08:43:28;;;;;;;12.32;3.33;;;16.80;99.90;;;;;;6250680;22;20018;-87
2023/05/31 08:45:55;;;;;;;5.45;2.75;;;16.60;99.90;;;;;;6250358;22;20016;-87
2023/05/31 08:48:24;;;;;;;11.30;3.67;;;;;;;;;;6276136;22;20015;-82
2023/05/31 08:50:52;;;;;;;9.30;3.17;;;16.80;99.90;;;;;;6252836;22;20034;-83
2023/05/31 08:53:20;;;;;;;8.80;3.72;;;16.80;99.90;;;;;;6249775;22;20018;-85
2023/05/31 08:55:48;;;;;;;7.97;3.42;;;16.90;99.90;;;;;;6250242;22;20078;-82
2023/05/31 08:58:14;;;;;;;8.18;3.53;;;;;;;;;;6224871;22;20072;-84
2023/05/31 09:00:44;;;;;;;12.23;4.55;;;16.80;99.90;;;;;;6275775;22;20050;-85
2023/05/31 09:03:10;;;;;;;7.45;3.50;;;;;;;;;;6249073;22;20023;-85
2023/05/31 09:05:42;;;;;;;10.68;3.97;;;;;;;;;;6250390;22;20078;-87
2023/05/31 09:08:11;;;;;;;11.15;3.72;;;;;;;;;;6276665;22;20023;-87
2023/05/31 09:10:40;;;;;;;9.40;5.57;;;16.80;99.90;;;;;;6249829;22;20467;-87
2023/05/31 09:13:06;;;;;;;15.27;5.28;;;;;;;;;;6276563;22;20046;-87
2023/05/31 09:15:32;;;;;;;12.30;4.70;;;;;;;;;;6249567;22;20025;-85
2023/05/31 09:21:40;;;;;;;9.02;4.80;;;16.90;99.90;;;;;;6276933;22;20031;-85
2023/05/31 09:24:07;;;;;;;7.07;4.10;;;16.50;99.90;;;;;;6274881;22;20016;-80
2023/05/31 09:26:33;;;;;;;13.02;5.07;;;;;;;;;;6275040;22;20023;-80
2023/05/31 09:29:00;;;;;;;9.48;4.60;;;;;;;;;;6249189;22;20015;-82
2023/05/31 09:31:27;;;;;;;15.30;5.40;;;;;;;;;;6249222;22;20353;-83
2023/05/31 09:33:56;;;;;;;12.20;4.40;;;;;;;;;;6250171;22;20349;-84
2023/05/31 09:36:25;;;;;;;11.15;5.43;;;;;;;;;;6225907;22;20034;-91
2023/05/31 09:39:04;;;;;;;10.45;4.65;;;16.60;99.90;;;;;;6278960;22;20037;-92
2023/05/31 09:41:31;;;;;;;11.10;5.22;;;16.60;99.90;;;;;;6252513;22;20020;-89
2023/05/31 09:43:57;;;;;;;8.18;4.18;;;;;;;;;;6277551;22;20065;-87
2023/05/31 09:46:24;;;;;;;10.60;4.57;;;16.50;99.90;;;;;;6277155;22;20020;-93
2023/05/31 09:49:03;;;;;;;9.18;4.85;;;16.30;99.90;;;;;;6252913;22;20023;-91
2023/05/31 09:51:32;;;;;;;11.60;4.90;;;16.40;99.90;;;;;;6252545;22;20016;-84
2023/05/31 09:53:58;;;;;;;9.73;5.07;;;;;;;;;;6252287;22;20019;-87
2023/05/31 09:56:25;;;;;;;10.02;4.43;;;;;;;;;;6252071;22;20456;-88
2023/05/31 09:58:52;;;;;;;14.02;5.95;;;16.80;99.90;;;;;;6254030;22;20012;-89
2023/05/31 10:01:21;;;;;;;9.93;4.70;;;;;;;;;;6279947;22;20012;-83
2023/05/31 10:03:50;;;;;;;9.95;5.65;;;16.80;99.90;;;;;;6254750;22;20019;-91
2023/05/31 10:06:19;;;;;;;9.15;5.63;;;16.90;99.90;;;;;;6247032;22;20012;-89
2023/05/31 10:08:46;;;;;;;10.93;5.22;;;16.80;99.90;;;;;;6253528;22;20138;-88
2023/05/31 10:11:16;;;;;;;9.20;6.25;;;16.80;99.90;;;;;;6253626;22;20313;-88
2023/05/31 10:13:43;;;;;;;13.23;6.60;;;;;;;;;;6253415;22;20024;-90
2023/05/31 10:16:14;;;;;;;8.20;5.25;;;17.00;99.90;;;;;;6279014;22;20051;-88
2023/05/31 10:18:45;;;;;;;8.88;5.03;;;17.10;99.90;;;;;;6254549;22;20011;-91
2023/05/31 10:21:24;;;;;;;13.73;6.03;;;16.90;99.90;;;;;;6254582;22;20441;-85
2023/05/31 10:24:08;;;;;;;17.52;6.97;;;17.00;99.90;;;;;;6279165;22;20095;-86
2023/05/31 10:26:46;;;;;;;12.85;5.15;;;16.90;99.90;;;;;;6253023;22;20520;-85
2023/05/31 10:29:23;;;;;;;12.13;5.93;;;17.20;99.90;;;;;;6252378;22;20077;-85
2023/05/31 10:31:51;;;;;;;12.98;5.40;;;17.00;99.90;;;;;;6251564;22;20015;-83
2023/05/31 10:34:22;;;;;;;8.63;5.35;;;17.20;99.90;;;;;;6226558;22;20051;-82
2023/05/31 10:36:55;;;;;;;11.90;6.28;;;17.20;99.90;;;;;;6251905;22;20051;-81
2023/05/31 10:39:48;;;;;;;13.70;4.97;;;16.90;99.90;;;;;;6278030;22;20016;-82
2023/05/31 10:42:37;;;;;;;10.32;5.78;;;17.20;99.90;;;;;;6215489;22;20019;-84
2023/05/31 10:45:09;;;;;;;14.38;6.50;;;17.30;99.90;;;;;;6250419;22;20069;-87
2023/05/31 10:47:51;;;;;;;13.95;4.90;;;17.40;99.90;;;;;;6276807;22;20471;-85
2023/05/31 10:50:22;;;;;;;11.63;5.60;;;17.40;99.90;;;;;;6250912;22;20041;-82
2023/05/31 10:52:49;;;;;;;7.57;4.60;;;17.60;99.90;;;;;;6252051;22;20015;-83
2023/05/31 10:55:21;;;;;;;15.98;5.30;;;17.20;99.90;;;;;;6251161;22;20023;-82
2023/05/31 10:57:54;;;;;;;7.38;4.18;;;17.60;99.90;;;;;;6276383;22;20016;-80
2023/05/31 11:00:22;;;;;;;8.85;4.63;;;17.70;99.90;;;;;;6225560;22;20022;-83
2023/05/31 11:02:51;;;;;;;15.48;6.28;;;17.70;99.90;;;;;;6225519;22;20027;-82
2023/05/31 11:05:27;;;;;;;9.48;5.05;;;17.80;99.90;;;;;;6250770;22;20018;-85
2023/05/31 11:07:58;;;;;;;6.18;4.97;;;17.90;99.90;;;;;;6250889;22;20019;-85
2023/05/31 11:10:28;;;;;;;6.78;4.78;;;18.00;99.90;;;;;;6276798;22;20008;-85
2023/05/31 11:13:05;;;;;;;6.32;4.20;;;18.00;99.90;;;;;;6276351;22;20111;-85
2023/05/31 11:15:42;;;;;;;8.43;3.75;;;17.80;99.90;;;;;;6250782;22;20098;-85
2023/05/31 11:18:40;;;;;;;7.90;4.20;;;18.10;99.90;;;;;;6276296;22;20087;-85
2023/05/31 11:21:06;;;;;;;11.00;4.07;;;;;;;;;;6250778;22;20455;-85
2023/05/31 11:23:34;;;;;;;9.38;5.03;;;;;;;;;;6251391;22;20039;-83
2023/05/31 11:26:27;;;;;;;9.43;4.63;;;18.10;99.90;;;;;;6276357;22;20095;-85
2023/05/31 11:29:03;;;;;;;9.93;4.90;;;18.10;99.90;;;;;;6219533;22;20016;-83
2023/05/31 11:31:59;;;;;;;9.32;4.47;;;18.20;99.90;;;;;;6250538;22;20376;-85
2023/05/31 11:34:28;;;;;;;11.27;5.03;;;18.00;99.90;;;;;;6225741;22;20352;-84
2023/05/31 11:36:58;;;;;;;10.35;5.38;;;18.00;99.90;;;;;;6225559;22;20015;-81
2023/05/31 11:39:27;;;;;;;8.93;5.05;;;18.40;99.90;;;;;;6250798;22;20022;-86
2023/05/31 11:41:54;;;;;;;7.55;4.28;;;18.30;99.90;;;;;;6250479;22;20020;-81
2023/05/31 11:44:29;;;;;;;11.10;4.75;;;18.20;99.90;;;;;;6225332;22;20343;-81
2023/05/31 11:47:01;;;;;;;12.48;4.60;;;18.20;99.90;;;;;;6250497;22;20103;-84
2023/05/31 11:49:33;;;;;;;8.75;4.88;;;18.30;99.90;;;;;;6250520;22;20016;-81
2023/05/31 11:52:00;;;;;;;11.55;4.50;;;18.30;99.90;;;;;;6269334;22;20031;-85
2023/05/31 11:54:29;;;;;;;11.82;3.97;;;18.20;99.90;;;;;;6250319;22;20098;-86
2023/05/31 11:56:58;;;;;;;10.93;4.85;;;18.30;99.90;;;;;;6275969;22;20015;-83
2023/05/31 11:59:27;;;;;;;7.13;3.95;;;18.30;99.90;;;;;;6250441;22;20011;-88
2023/05/31 12:01:58;;;;;;;9.98;3.90;;;18.30;99.90;;;;;;6276391;22;20070;-87
2023/05/31 12:04:31;;;;;;;8.35;4.40;;;18.50;99.90;;;;;;6276164;22;20043;-85
2023/05/31 12:06:57;;;;;;;6.38;3.13;;;18.40;99.90;;;;;;6226313;22;20054;-83
2023/05/31 12:09:25;;;;;;;13.90;3.53;;;18.40;99.90;;;;;;6224850;22;20012;-84
2023/05/31 12:11:51;;;;;;;8.07;4.20;;;;;;;;;;6225301;22;20073;-83
2023/05/31 12:14:26;;;;;;;9.45;3.83;;;18.50;99.90;;;;;;6278117;22;20022;-82
2023/05/31 12:16:52;;;;;;;8.35;4.07;;;18.70;99.90;;;;;;6251847;22;20055;-83
2023/05/31 12:19:19;;;;;;;4.88;3.05;;;;;;;;;;6251012;22;20054;-84
2023/05/31 12:21:45;;;;;;;5.88;3.65;;;;;;;;;;6250720;22;20015;-82
2023/05/31 12:24:13;;;;;;;6.60;3.28;;;18.50;99.90;;;;;;6277559;22;20012;-84
2023/05/31 12:26:39;;;;;;;8.93;3.83;;;;;;;;;;6275700;22;20070;-81
2023/05/31 12:29:06;;;;;;;8.88;3.17;;;;;;;;;;6275460;22;20058;-83
2023/05/31 12:31:36;;;;;;;5.10;2.65;;;18.70;99.90;;;;;;6277446;22;20026;-81
2023/05/31 12:34:08;;;;;;;5.22;3.10;;;;;;;;;;6275523;22;20028;-82
2023/05/31 12:36:43;;;;;;;8.05;3.40;;;18.70;99.90;;;;;;6249692;22;20020;-84
2023/05/31 12:39:20;;;;;;;10.13;3.25;;;18.70;99.90;;;;;;6276773;22;20019;-84
2023/05/31 12:41:47;;;;;;;4.40;2.88;;;18.60;99.90;;;;;;6277136;22;20016;-84
2023/05/31 12:44:16;;;;;;;9.02;4.50;;;18.70;99.90;;;;;;6275217;22;20070;-83
2023/05/31 12:46:46;;;;;;;12.38;3.83;;;18.90;99.90;;;;;;6249954;22;20401;-82
2023/05/31 12:49:31;;;;;;;10.95;4.40;;;18.90;99.90;;;;;;6275170;22;20019;-84
2023/05/31 12:52:05;;;;;;;8.73;5.40;;;18.80;99.90;;;;;;6275409;22;20028;-83
2023/05/31 12:54:36;;;;;;;11.15;4.53;;;18.80;99.90;;;;;;6274252;22;20326;-84
2023/05/31 12:57:04;;;;;;;9.68;4.03;;;18.90;99.90;;;;;;6249700;22;20015;-82
2023/05/31 12:59:31;;;;;;;10.07;4.15;;;18.80;99.90;;;;;;6250540;22;20015;-83
2023/05/31 13:01:58;;;;;;;10.32;4.72;;;;;;;;;;6250553;22;20326;-82
2023/05/31 13:04:25;;;;;;;8.38;4.30;;;;;;;;;;6250162;22;20495;-82
2023/05/31 13:06:52;;;;;;;6.50;4.38;;;;;;;;;;6250097;22;20022;-83
2023/05/31 13:09:18;;;;;;;8.13;4.43;;;;;;;;;;6250501;22;20016;-84
2023/05/31 13:11:48;;;;;;;8.15;5.03;;;;;;;;;;6275893;22;20047;-84
2023/05/31 13:14:15;;;;;;;12.10;5.40;;;19.20;99.90;;;;;;6250653;22;20169;-81
2023/05/31 13:16:42;;;;;;;7.53;3.35;;;;;;;;;;6277565;22;20386;-82
2023/05/31 13:19:09;;;;;;;8.43;3.63;;;;;;;;;;6276057;22;20051;-80
2023/05/31 13:21:38;;;;;;;8.07;3.30;;;;;;;;;;6277571;22;20016;-84
2023/05/31 13:24:10;;;;;;;6.75;3.97;;;19.00;99.90;;;;;;6276885;22;20336;-84
2023/05/31 13:26:36;;;;;;;11.82;4.57;;;;;;;;;;6276496;22;20041;-83
2023/05/31 13:29:04;;;;;;;6.05;3.30;;;19.20;99.90;;;;;;6275263;22;20073;-81
2023/05/31 13:31:31;;;;;;;6.10;2.95;;;;;;;;;;6250133;22;20012;-82
2023/05/31 13:33:57;;;;;;;9.18;3.45;;;;;;;;;;6249589;22;20019;-83
2023/05/31 13:36:25;;;;;;;12.98;3.80;;;19.30;99.90;;;;;;6275691;22;20023;-83
2023/05/31 13:38:52;;;;;;;13.55;3.95;;;;;;;;;;6275181;22;20058;-83
2023/05/31 13:41:21;;;;;;;10.32;3.40;;;19.20;99.90;;;;;;6249586;22;20069;-80
2023/05/31 13:43:47;;;;;;;6.53;3.97;;;;;;;;;;6276133;22;20031;-83
2023/05/31 13:46:14;;;;;;;9.30;4.25;;;;;;;;;;6275914;22;20101;-82
2023/05/31 13:48:41;;;;;;;8.50;3.88;;;19.20;99.90;;;;;;6249721;22;20062;-83
2023/05/31 13:51:09;;;;;;;5.15;3.28;;;19.20;99.90;;;;;;6249570;22;20020;-82
2023/05/31 13:53:35;;;;;;;6.18;3.25;;;;;;;;;;6249819;22;20016;-82
2023/05/31 13:56:08;;;;;;;17.80;3.83;;;19.20;99.90;;;;;;6275608;22;20091;-82
2023/05/31 13:58:38;;;;;;;8.43;3.60;;;19.00;99.90;;;;;;6249729;22;20016;-82
2023/05/31 14:01:06;;;;;;;8.25;3.45;;;19.30;99.90;;;;;;6274996;22;20020;-82
2023/05/31 14:03:33;;;;;;;9.98;3.90;;;19.20;99.90;;;;;;6275445;22;20016;-81
2023/05/31 14:06:02;;;;;;;5.75;3.40;;;19.20;99.90;;;;;;6250341;22;20011;-82
2023/05/31 14:08:28;;;;;;;8.18;3.92;;;;;;;;;;6249635;22;20023;-83